sensor_id;sensor_type;location;lat;lon;timestamp;pressure;altitude;pressure_sealevel;temperature;humidity
21401;BME280;18038;50.166;18.908;2022-08-21T00:00:40;97561.13;;;17.82;78.06
21401;BME280;18038;50.166;18.908;2022-08-21T00:03:49;97566.84;;;17.86;78.32
21401;BME280;18038;50.166;18.908;2022-08-21T00:06:58;97570.72;;;17.95;78.59
21401;BME280;18038;50.166;18.908;2022-08-21T00:10:05;97575.41;;;18.05;77.72
21401;BME280;18038;50.166;18.908;2022-08-21T00:13:12;97565.78;;;18.14;77.63
21401;BME280;18038;50.166;18.908;2022-08-21T00:16:20;97566.44;;;18.26;77.82
21401;BME280;18038;50.166;18.908;2022-08-21T00:19:28;97570.75;;;18.22;77.55
21401;BME280;18038;50.166;18.908;2022-08-21T00:22:34;97562.63;;;18.22;77.07
21401;BME280;18038;50.166;18.908;2022-08-21T00:25:42;97553.63;;;18.17;77.82
21401;BME280;18038;50.166;18.908;2022-08-21T00:28:49;97556.72;;;18.25;77.25
21401;BME280;18038;50.166;18.908;2022-08-21T00:31:56;97550.97;;;18.22;77.50
21401;BME280;18038;50.166;18.908;2022-08-21T00:35:06;97544.72;;;18.16;77.94
21401;BME280;18038;50.166;18.908;2022-08-21T00:38:14;97536.03;;;18.09;77.85
21401;BME280;18038;50.166;18.908;2022-08-21T00:41:20;97523.00;;;18.06;78.62
21401;BME280;18038;50.166;18.908;2022-08-21T00:44:39;97517.53;;;18.01;78.63
21401;BME280;18038;50.166;18.908;2022-08-21T00:47:45;97509.44;;;18.01;78.86
21401;BME280;18038;50.166;18.908;2022-08-21T00:50:57;97515.41;;;18.03;78.82
21401;BME280;18038;50.166;18.908;2022-08-21T00:54:08;97502.41;;;18.00;78.56
21401;BME280;18038;50.166;18.908;2022-08-21T00:57:26;97491.03;;;17.98;79.07
21401;BME280;18038;50.166;18.908;2022-08-21T01:00:38;97495.44;;;18.04;79.06
21401;BME280;18038;50.166;18.908;2022-08-21T01:03:47;97488.94;;;18.05;78.65
21401;BME280;18038;50.166;18.908;2022-08-21T01:06:55;97488.34;;;17.98;79.08
21401;BME280;18038;50.166;18.908;2022-08-21T01:10:03;97484.09;;;18.07;78.41
21401;BME280;18038;50.166;18.908;2022-08-21T01:13:34;97492.78;;;18.14;78.20
21401;BME280;18038;50.166;18.908;2022-08-21T01:16:50;97496.38;;;18.20;78.36
21401;BME280;18038;50.166;18.908;2022-08-21T01:19:58;97493.28;;;18.06;78.69
21401;BME280;18038;50.166;18.908;2022-08-21T01:23:07;97494.59;;;18.03;78.97
21401;BME280;18038;50.166;18.908;2022-08-21T01:26:15;97480.31;;;18.08;78.88
21401;BME280;18038;50.166;18.908;2022-08-21T01:29:36;97478.38;;;18.03;79.26
21401;BME280;18038;50.166;18.908;2022-08-21T01:32:48;97475.44;;;18.05;78.92
21401;BME280;18038;50.166;18.908;2022-08-21T01:35:54;97463.00;;;18.04;79.08
21401;BME280;18038;50.166;18.908;2022-08-21T01:39:04;97449.44;;;17.99;79.04
21401;BME280;18038;50.166;18.908;2022-08-21T01:42:12;97466.75;;;18.03;79.42
21401;BME280;18038;50.166;18.908;2022-08-21T01:45:19;97459.75;;;18.02;79.76
21401;BME280;18038;50.166;18.908;2022-08-21T01:48:25;97440.78;;;17.97;79.52
21401;BME280;18038;50.166;18.908;2022-08-21T01:51:31;97435.38;;;17.97;79.76
21401;BME280;18038;50.166;18.908;2022-08-21T01:54:41;97422.13;;;17.95;79.96
21401;BME280;18038;50.166;18.908;2022-08-21T01:57:58;97424.53;;;17.92;79.99
21401;BME280;18038;50.166;18.908;2022-08-21T02:01:05;97414.75;;;17.85;80.36
21401;BME280;18038;50.166;18.908;2022-08-21T02:04:11;97420.50;;;17.94;79.78
21401;BME280;18038;50.166;18.908;2022-08-21T02:07:17;97428.41;;;18.06;79.66
21401;BME280;18038;50.166;18.908;2022-08-21T02:10:29;97422.00;;;18.12;78.96
21401;BME280;18038;50.166;18.908;2022-08-21T02:13:36;97432.09;;;18.27;78.38
21401;BME280;18038;50.166;18.908;2022-08-21T02:16:44;97427.53;;;18.33;78.44
21401;BME280;18038;50.166;18.908;2022-08-21T02:20:08;97429.47;;;18.37;78.21
21401;BME280;18038;50.166;18.908;2022-08-21T02:23:15;97417.34;;;18.40;78.39
21401;BME280;18038;50.166;18.908;2022-08-21T02:26:30;97407.63;;;18.39;77.94
21401;BME280;18038;50.166;18.908;2022-08-21T02:29:36;97412.53;;;18.47;77.89
21401;BME280;18038;50.166;18.908;2022-08-21T02:32:46;97411.69;;;18.41;77.88
21401;BME280;18038;50.166;18.908;2022-08-21T02:35:52;97410.34;;;18.44;78.49
21401;BME280;18038;50.166;18.908;2022-08-21T02:39:02;97413.34;;;18.47;78.29
21401;BME280;18038;50.166;18.908;2022-08-21T02:42:14;97413.69;;;18.61;77.54
21401;BME280;18038;50.166;18.908;2022-08-21T02:45:20;97421.81;;;18.66;77.64
21401;BME280;18038;50.166;18.908;2022-08-21T02:48:44;97422.94;;;18.70;77.09
21401;BME280;18038;50.166;18.908;2022-08-21T02:51:53;97415.59;;;18.66;77.29
21401;BME280;18038;50.166;18.908;2022-08-21T02:54:59;97428.84;;;18.62;77.47
21401;BME280;18038;50.166;18.908;2022-08-21T02:58:08;97419.63;;;18.58;77.74
21401;BME280;18038;50.166;18.908;2022-08-21T03:01:15;97417.50;;;18.65;77.61
21401;BME280;18038;50.166;18.908;2022-08-21T03:04:22;97418.84;;;18.63;78.02
21401;BME280;18038;50.166;18.908;2022-08-21T03:07:28;97408.22;;;18.51;78.08
21401;BME280;18038;50.166;18.908;2022-08-21T03:10:36;97420.94;;;18.56;77.95
21401;BME280;18038;50.166;18.908;2022-08-21T03:13:46;97420.94;;;18.56;78.03
21401;BME280;18038;50.166;18.908;2022-08-21T03:16:52;97428.28;;;18.60;77.46
21401;BME280;18038;50.166;18.908;2022-08-21T03:19:57;97437.78;;;18.63;77.28
21401;BME280;18038;50.166;18.908;2022-08-21T03:23:10;97444.03;;;18.68;77.36
21401;BME280;18038;50.166;18.908;2022-08-21T03:26:20;97449.50;;;18.79;77.31
21401;BME280;18038;50.166;18.908;2022-08-21T03:29:31;97444.06;;;18.73;77.06
21401;BME280;18038;50.166;18.908;2022-08-21T03:32:37;97455.97;;;18.78;77.17
21401;BME280;18038;50.166;18.908;2022-08-21T03:35:45;97454.63;;;18.80;77.24
21401;BME280;18038;50.166;18.908;2022-08-21T03:38:56;97460.03;;;18.80;76.71
21401;BME280;18038;50.166;18.908;2022-08-21T03:42:02;97462.75;;;18.85;76.53
21401;BME280;18038;50.166;18.908;2022-08-21T03:45:12;97458.97;;;18.81;76.69
21401;BME280;18038;50.166;18.908;2022-08-21T03:48:19;97460.31;;;18.79;77.06
21401;BME280;18038;50.166;18.908;2022-08-21T03:51:25;97456.19;;;18.66;77.32
21401;BME280;18038;50.166;18.908;2022-08-21T03:54:31;97457.03;;;18.77;77.31
21401;BME280;18038;50.166;18.908;2022-08-21T03:57:41;97448.41;;;18.80;76.92
21401;BME280;18038;50.166;18.908;2022-08-21T04:00:54;97449.53;;;18.89;76.57
21401;BME280;18038;50.166;18.908;2022-08-21T04:04:03;97445.75;;;18.90;77.22
21401;BME280;18038;50.166;18.908;2022-08-21T04:07:10;97454.72;;;18.95;76.54
21401;BME280;18038;50.166;18.908;2022-08-21T04:10:15;97451.75;;;18.97;76.28
21401;BME280;18038;50.166;18.908;2022-08-21T04:13:24;97454.47;;;19.02;76.20
21401;BME280;18038;50.166;18.908;2022-08-21T04:16:33;97460.97;;;19.06;76.08
21401;BME280;18038;50.166;18.908;2022-08-21T04:19:39;97457.72;;;18.99;76.35
21401;BME280;18038;50.166;18.908;2022-08-21T04:22:45;97459.91;;;19.07;76.30
21401;BME280;18038;50.166;18.908;2022-08-21T04:25:54;97469.13;;;19.11;75.84
21401;BME280;18038;50.166;18.908;2022-08-21T04:29:01;97462.91;;;19.16;75.61
21401;BME280;18038;50.166;18.908;2022-08-21T04:32:21;97463.78;;;19.22;74.84
21401;BME280;18038;50.166;18.908;2022-08-21T04:35:28;97468.97;;;19.28;75.03
21401;BME280;18038;50.166;18.908;2022-08-21T04:38:35;97465.41;;;19.28;75.49
21401;BME280;18038;50.166;18.908;2022-08-21T04:41:45;97456.78;;;19.31;75.28
21401;BME280;18038;50.166;18.908;2022-08-21T04:44:51;97460.31;;;19.31;75.24
21401;BME280;18038;50.166;18.908;2022-08-21T04:48:05;97468.69;;;19.35;75.17
21401;BME280;18038;50.166;18.908;2022-08-21T04:51:21;97471.69;;;19.28;75.76
21401;BME280;18038;50.166;18.908;2022-08-21T04:54:32;97472.38;;;19.13;76.03
21401;BME280;18038;50.166;18.908;2022-08-21T04:57:39;97475.72;;;19.26;75.63
21401;BME280;18038;50.166;18.908;2022-08-21T05:00:55;97476.25;;;19.28;75.01
21401;BME280;18038;50.166;18.908;2022-08-21T05:04:09;97468.41;;;19.26;75.68
21401;BME280;18038;50.166;18.908;2022-08-21T05:07:21;97465.06;;;19.14;75.87
21401;BME280;18038;50.166;18.908;2022-08-21T05:10:44;97469.69;;;19.13;76.23
21401;BME280;18038;50.166;18.908;2022-08-21T05:13:51;97466.41;;;19.11;76.31
21401;BME280;18038;50.166;18.908;2022-08-21T05:16:59;97470.22;;;19.10;76.12
21401;BME280;18038;50.166;18.908;2022-08-21T05:20:10;97481.31;;;19.14;76.17
21401;BME280;18038;50.166;18.908;2022-08-21T05:23:17;97481.38;;;19.24;76.43
21401;BME280;18038;50.166;18.908;2022-08-21T05:26:25;97492.50;;;19.28;76.27
21401;BME280;18038;50.166;18.908;2022-08-21T05:29:32;97487.66;;;19.35;75.67
21401;BME280;18038;50.166;18.908;2022-08-21T05:32:39;97486.06;;;19.39;75.57
21401;BME280;18038;50.166;18.908;2022-08-21T05:35:49;97489.78;;;19.28;75.93
21401;BME280;18038;50.166;18.908;2022-08-21T05:38:55;97488.09;;;19.16;76.32
21401;BME280;18038;50.166;18.908;2022-08-21T05:42:01;97494.09;;;19.19;76.22
21401;BME280;18038;50.166;18.908;2022-08-21T05:45:07;97495.72;;;19.25;76.10
21401;BME280;18038;50.166;18.908;2022-08-21T05:48:15;97499.78;;;19.22;76.51
21401;BME280;18038;50.166;18.908;2022-08-21T05:51:25;97497.03;;;19.17;76.11
21401;BME280;18038;50.166;18.908;2022-08-21T05:54:31;97496.72;;;19.08;76.77
21401;BME280;18038;50.166;18.908;2022-08-21T05:57:37;97508.09;;;19.10;76.92
21401;BME280;18038;50.166;18.908;2022-08-21T06:00:45;97511.38;;;19.12;77.10
21401;BME280;18038;50.166;18.908;2022-08-21T06:03:52;97513.59;;;19.21;76.38
21401;BME280;18038;50.166;18.908;2022-08-21T06:07:00;97513.00;;;19.13;77.22
21401;BME280;18038;50.166;18.908;2022-08-21T06:10:17;97519.91;;;18.89;75.86
21401;BME280;18038;50.166;18.908;2022-08-21T06:13:23;97527.22;;;18.56;75.61
21401;BME280;18038;50.166;18.908;2022-08-21T06:16:29;97524.84;;;18.33;76.48
21401;BME280;18038;50.166;18.908;2022-08-21T06:19:35;97521.06;;;18.28;76.35
21401;BME280;18038;50.166;18.908;2022-08-21T06:22:43;97524.75;;;18.17;76.15
21401;BME280;18038;50.166;18.908;2022-08-21T06:25:49;97523.97;;;17.95;76.06
21401;BME280;18038;50.166;18.908;2022-08-21T06:28:58;97511.53;;;17.94;76.34
21401;BME280;18038;50.166;18.908;2022-08-21T06:32:05;97522.34;;;17.94;75.92
21401;BME280;18038;50.166;18.908;2022-08-21T06:35:11;97517.25;;;17.97;75.81
21401;BME280;18038;50.166;18.908;2022-08-21T06:38:20;97523.09;;;18.16;76.09
21401;BME280;18038;50.166;18.908;2022-08-21T06:41:25;97519.97;;;18.29;75.01
21401;BME280;18038;50.166;18.908;2022-08-21T06:44:40;97519.34;;;18.17;74.67
21401;BME280;18038;50.166;18.908;2022-08-21T06:47:47;97520.00;;;18.02;75.08
21401;BME280;18038;50.166;18.908;2022-08-21T06:50:53;97525.22;;;18.09;74.46
21401;BME280;18038;50.166;18.908;2022-08-21T06:54:08;97522.88;;;17.91;73.85
21401;BME280;18038;50.166;18.908;2022-08-21T06:57:13;97533.75;;;18.01;73.69
21401;BME280;18038;50.166;18.908;2022-08-21T07:00:19;97536.72;;;17.99;72.69
21401;BME280;18038;50.166;18.908;2022-08-21T07:03:28;97536.69;;;17.94;73.29
21401;BME280;18038;50.166;18.908;2022-08-21T07:06:36;97544.91;;;17.82;72.55
21401;BME280;18038;50.166;18.908;2022-08-21T07:09:44;97542.44;;;18.03;72.31
21401;BME280;18038;50.166;18.908;2022-08-21T07:12:50;97538.63;;;17.99;72.21
21401;BME280;18038;50.166;18.908;2022-08-21T07:16:03;97548.34;;;18.00;71.61
21401;BME280;18038;50.166;18.908;2022-08-21T07:19:08;97554.78;;;17.94;71.00
21401;BME280;18038;50.166;18.908;2022-08-21T07:22:18;97558.06;;;18.01;70.97
21401;BME280;18038;50.166;18.908;2022-08-21T07:25:27;97558.28;;;17.94;71.31
21401;BME280;18038;50.166;18.908;2022-08-21T07:28:33;97554.88;;;18.04;70.61
21401;BME280;18038;50.166;18.908;2022-08-21T07:31:39;97548.91;;;18.02;70.19
21401;BME280;18038;50.166;18.908;2022-08-21T07:34:44;97555.38;;;18.01;69.30
21401;BME280;18038;50.166;18.908;2022-08-21T07:37:50;97560.38;;;17.87;69.88
21401;BME280;18038;50.166;18.908;2022-08-21T07:41:00;97560.75;;;17.74;70.01
21401;BME280;18038;50.166;18.908;2022-08-21T07:44:07;97559.31;;;18.15;69.42
21401;BME280;18038;50.166;18.908;2022-08-21T07:47:13;97559.88;;;18.17;68.76
21401;BME280;18038;50.166;18.908;2022-08-21T07:50:39;97557.03;;;18.02;69.32
21401;BME280;18038;50.166;18.908;2022-08-21T07:53:48;97560.47;;;18.24;68.73
21401;BME280;18038;50.166;18.908;2022-08-21T07:56:58;97557.94;;;18.13;68.34
21401;BME280;18038;50.166;18.908;2022-08-21T08:00:14;97559.88;;;18.44;68.58
21401;BME280;18038;50.166;18.908;2022-08-21T08:03:21;97554.34;;;18.66;67.34
21401;BME280;18038;50.166;18.908;2022-08-21T08:06:31;97548.25;;;18.81;66.86
21401;BME280;18038;50.166;18.908;2022-08-21T08:09:40;97552.41;;;18.94;66.75
21401;BME280;18038;50.166;18.908;2022-08-21T08:12:49;97547.50;;;18.91;66.62
21401;BME280;18038;50.166;18.908;2022-08-21T08:15:57;97540.34;;;19.17;65.70
21401;BME280;18038;50.166;18.908;2022-08-21T08:19:09;97547.16;;;19.20;65.99
21401;BME280;18038;50.166;18.908;2022-08-21T08:22:34;97542.94;;;19.39;64.66
21401;BME280;18038;50.166;18.908;2022-08-21T08:25:43;97543.94;;;19.28;65.42
21401;BME280;18038;50.166;18.908;2022-08-21T08:28:51;97539.38;;;19.38;64.38
21401;BME280;18038;50.166;18.908;2022-08-21T08:31:57;97547.91;;;19.63;64.31
21401;BME280;18038;50.166;18.908;2022-08-21T08:35:06;97538.78;;;19.99;63.14
21401;BME280;18038;50.166;18.908;2022-08-21T08:38:15;97545.88;;;20.36;62.37
21401;BME280;18038;50.166;18.908;2022-08-21T08:41:25;97543.19;;;20.67;60.39
21401;BME280;18038;50.166;18.908;2022-08-21T08:44:35;97542.91;;;20.68;60.78
21401;BME280;18038;50.166;18.908;2022-08-21T08:47:49;97543.13;;;21.13;59.51
21401;BME280;18038;50.166;18.908;2022-08-21T08:51:02;97543.78;;;21.65;58.51
21401;BME280;18038;50.166;18.908;2022-08-21T08:54:17;97543.81;;;22.09;57.14
21401;BME280;18038;50.166;18.908;2022-08-21T08:57:29;97540.31;;;22.43;55.32
21401;BME280;18038;50.166;18.908;2022-08-21T09:00:39;97539.53;;;22.72;54.40
21401;BME280;18038;50.166;18.908;2022-08-21T09:03:47;97524.75;;;22.88;53.72
21401;BME280;18038;50.166;18.908;2022-08-21T09:07:08;97534.09;;;21.98;55.05
21401;BME280;18038;50.166;18.908;2022-08-21T09:10:32;97534.53;;;22.20;56.57
21401;BME280;18038;50.166;18.908;2022-08-21T09:13:57;97538.91;;;22.11;56.42
21401;BME280;18038;50.166;18.908;2022-08-21T09:17:26;97545.25;;;21.96;55.55
21401;BME280;18038;50.166;18.908;2022-08-21T09:21:06;97530.03;;;21.46;57.00
21401;BME280;18038;50.166;18.908;2022-08-21T09:24:29;97541.28;;;20.88;59.07
21401;BME280;18038;50.166;18.908;2022-08-21T09:27:38;97544.00;;;20.62;60.04
21401;BME280;18038;50.166;18.908;2022-08-21T09:30:44;97546.16;;;20.24;61.53
21401;BME280;18038;50.166;18.908;2022-08-21T09:33:57;97560.53;;;20.35;61.81
21401;BME280;18038;50.166;18.908;2022-08-21T09:37:04;97558.06;;;20.03;62.13
21401;BME280;18038;50.166;18.908;2022-08-21T09:40:32;97556.25;;;19.51;63.89
21401;BME280;18038;50.166;18.908;2022-08-21T09:43:53;97552.16;;;19.48;64.34
21401;BME280;18038;50.166;18.908;2022-08-21T09:46:59;97550.06;;;19.60;64.29
21401;BME280;18038;50.166;18.908;2022-08-21T09:50:13;97554.53;;;19.34;65.04
21401;BME280;18038;50.166;18.908;2022-08-21T09:53:25;97561.06;;;19.33;66.15
21401;BME280;18038;50.166;18.908;2022-08-21T09:56:50;97562.38;;;19.31;66.49
21401;BME280;18038;50.166;18.908;2022-08-21T10:00:19;97574.31;;;19.35;67.11
21401;BME280;18038;50.166;18.908;2022-08-21T10:03:35;97578.06;;;19.24;67.03
21401;BME280;18038;50.166;18.908;2022-08-21T10:06:43;97574.00;;;19.26;67.14
21401;BME280;18038;50.166;18.908;2022-08-21T10:09:59;97582.09;;;19.21;67.50
21401;BME280;18038;50.166;18.908;2022-08-21T10:13:13;97581.75;;;19.12;67.54
21401;BME280;18038;50.166;18.908;2022-08-21T10:16:35;97586.19;;;19.29;68.32
21401;BME280;18038;50.166;18.908;2022-08-21T10:19:59;97583.81;;;19.43;67.83
21401;BME280;18038;50.166;18.908;2022-08-21T10:23:29;97574.97;;;19.68;67.05
21401;BME280;18038;50.166;18.908;2022-08-21T10:26:55;97582.31;;;19.67;66.90
21401;BME280;18038;50.166;18.908;2022-08-21T10:30:30;97582.50;;;19.50;66.87
21401;BME280;18038;50.166;18.908;2022-08-21T10:34:17;97586.53;;;19.43;66.88
21401;BME280;18038;50.166;18.908;2022-08-21T10:37:50;97585.66;;;19.32;68.12
21401;BME280;18038;50.166;18.908;2022-08-21T10:41:15;97583.78;;;19.32;67.97
21401;BME280;18038;50.166;18.908;2022-08-21T10:44:35;97580.41;;;19.15;68.23
21401;BME280;18038;50.166;18.908;2022-08-21T10:48:04;97582.25;;;19.09;68.93
21401;BME280;18038;50.166;18.908;2022-08-21T10:51:26;97582.81;;;19.11;68.42
21401;BME280;18038;50.166;18.908;2022-08-21T10:54:47;97579.28;;;19.11;68.56
21401;BME280;18038;50.166;18.908;2022-08-21T10:58:09;97575.66;;;18.95;68.98
21401;BME280;18038;50.166;18.908;2022-08-21T11:01:24;97579.38;;;18.84;68.85
21401;BME280;18038;50.166;18.908;2022-08-21T11:04:38;97576.66;;;18.79;69.53
21401;BME280;18038;50.166;18.908;2022-08-21T11:07:56;97581.53;;;18.82;70.13
21401;BME280;18038;50.166;18.908;2022-08-21T11:11:19;97584.19;;;18.77;69.95
21401;BME280;18038;50.166;18.908;2022-08-21T11:14:46;97587.13;;;18.70;70.00
21401;BME280;18038;50.166;18.908;2022-08-21T11:18:22;97576.56;;;18.68;70.59
21401;BME280;18038;50.166;18.908;2022-08-21T11:21:39;97574.94;;;18.67;70.29
21401;BME280;18038;50.166;18.908;2022-08-21T11:24:58;97570.91;;;18.70;70.85
21401;BME280;18038;50.166;18.908;2022-08-21T11:28:18;97579.91;;;18.81;70.66
21401;BME280;18038;50.166;18.908;2022-08-21T11:31:51;97578.41;;;19.00;69.65
21401;BME280;18038;50.166;18.908;2022-08-21T11:35:17;97576.34;;;19.12;69.52
21401;BME280;18038;50.166;18.908;2022-08-21T11:38:35;97582.78;;;19.06;68.96
21401;BME280;18038;50.166;18.908;2022-08-21T11:41:54;97579.50;;;18.99;69.60
21401;BME280;18038;50.166;18.908;2022-08-21T11:45:21;97579.28;;;19.11;69.69
21401;BME280;18038;50.166;18.908;2022-08-21T11:48:54;97578.13;;;18.97;69.89
21401;BME280;18038;50.166;18.908;2022-08-21T11:52:16;97577.69;;;18.72;70.91
21401;BME280;18038;50.166;18.908;2022-08-21T11:55:33;97585.63;;;18.84;70.77
21401;BME280;18038;50.166;18.908;2022-08-21T11:58:48;97580.88;;;19.07;70.45
21401;BME280;18038;50.166;18.908;2022-08-21T12:02:09;97578.31;;;19.27;69.05
21401;BME280;18038;50.166;18.908;2022-08-21T12:05:32;97581.97;;;19.06;69.83
21401;BME280;18038;50.166;18.908;2022-08-21T12:08:43;97575.16;;;18.98;69.29
21401;BME280;18038;50.166;18.908;2022-08-21T12:12:01;97579.97;;;18.91;69.43
21401;BME280;18038;50.166;18.908;2022-08-21T12:15:17;97578.34;;;18.90;70.07
21401;BME280;18038;50.166;18.908;2022-08-21T12:18:31;97590.13;;;18.73;70.07
21401;BME280;18038;50.166;18.908;2022-08-21T12:22:08;97584.47;;;18.43;69.49
21401;BME280;18038;50.166;18.908;2022-08-21T12:25:19;97593.25;;;18.06;70.86
21401;BME280;18038;50.166;18.908;2022-08-21T12:28:28;97596.56;;;17.86;71.06
21401;BME280;18038;50.166;18.908;2022-08-21T12:31:49;97590.63;;;17.62;71.32
21401;BME280;18038;50.166;18.908;2022-08-21T12:35:14;97589.53;;;17.24;72.31
21401;BME280;18038;50.166;18.908;2022-08-21T12:38:32;97597.53;;;16.97;72.22
21401;BME280;18038;50.166;18.908;2022-08-21T12:42:00;97588.22;;;16.71;72.92
21401;BME280;18038;50.166;18.908;2022-08-21T12:45:19;97589.66;;;16.62;72.77
21401;BME280;18038;50.166;18.908;2022-08-21T12:48:35;97586.81;;;16.51;73.36
21401;BME280;18038;50.166;18.908;2022-08-21T12:51:54;97589.25;;;16.53;73.02
21401;BME280;18038;50.166;18.908;2022-08-21T12:55:12;97584.41;;;16.38;72.94
21401;BME280;18038;50.166;18.908;2022-08-21T12:58:20;97594.03;;;16.34;73.98
21401;BME280;18038;50.166;18.908;2022-08-21T13:01:30;97597.09;;;16.38;73.45
21401;BME280;18038;50.166;18.908;2022-08-21T13:04:44;97591.44;;;16.39;73.27
21401;BME280;18038;50.166;18.908;2022-08-21T13:07:52;97593.00;;;16.35;73.24
21401;BME280;18038;50.166;18.908;2022-08-21T13:11:05;97588.56;;;16.29;74.04
21401;BME280;18038;50.166;18.908;2022-08-21T13:14:23;97590.41;;;16.11;74.50
21401;BME280;18038;50.166;18.908;2022-08-21T13:17:37;97592.97;;;15.89;76.33
21401;BME280;18038;50.166;18.908;2022-08-21T13:21:04;97592.25;;;15.94;75.63
21401;BME280;18038;50.166;18.908;2022-08-21T13:24:17;97599.94;;;16.02;74.80
21401;BME280;18038;50.166;18.908;2022-08-21T13:28:00;97608.41;;;15.94;75.75
21401;BME280;18038;50.166;18.908;2022-08-21T13:31:26;97603.78;;;15.78;75.65
21401;BME280;18038;50.166;18.908;2022-08-21T13:34:37;97605.16;;;15.92;75.40
21401;BME280;18038;50.166;18.908;2022-08-21T13:37:46;97601.38;;;15.93;75.76
21401;BME280;18038;50.166;18.908;2022-08-21T13:40:58;97601.38;;;15.93;76.00
21401;BME280;18038;50.166;18.908;2022-08-21T13:44:19;97602.47;;;15.92;76.15
21401;BME280;18038;50.166;18.908;2022-08-21T13:47:28;97608.38;;;16.06;76.00
21401;BME280;18038;50.166;18.908;2022-08-21T13:50:37;97622.22;;;15.98;75.91
21401;BME280;18038;50.166;18.908;2022-08-21T13:53:55;97620.47;;;15.92;76.17
21401;BME280;18038;50.166;18.908;2022-08-21T13:57:03;97611.00;;;15.89;75.41
21401;BME280;18038;50.166;18.908;2022-08-21T14:00:27;97614.28;;;15.91;75.32
21401;BME280;18038;50.166;18.908;2022-08-21T14:03:42;97613.13;;;15.87;75.60
21401;BME280;18038;50.166;18.908;2022-08-21T14:06:53;97626.00;;;15.85;75.25
21401;BME280;18038;50.166;18.908;2022-08-21T14:10:03;97621.09;;;15.70;75.57
21401;BME280;18038;50.166;18.908;2022-08-21T14:13:36;97625.91;;;15.80;75.70
21401;BME280;18038;50.166;18.908;2022-08-21T14:16:54;97619.47;;;15.81;75.42
21401;BME280;18038;50.166;18.908;2022-08-21T14:20:29;97626.59;;;15.87;75.01
21401;BME280;18038;50.166;18.908;2022-08-21T14:23:37;97621.75;;;16.01;74.55
21401;BME280;18038;50.166;18.908;2022-08-21T14:26:47;97620.44;;;16.03;74.16
21401;BME280;18038;50.166;18.908;2022-08-21T14:29:59;97628.03;;;16.06;74.76
21401;BME280;18038;50.166;18.908;2022-08-21T14:33:20;97629.22;;;16.10;74.29
21401;BME280;18038;50.166;18.908;2022-08-21T14:36:31;97626.59;;;16.16;73.57
21401;BME280;18038;50.166;18.908;2022-08-21T14:39:37;97613.31;;;15.97;74.68
21401;BME280;18038;50.166;18.908;2022-08-21T14:42:46;97623.75;;;15.94;74.06
21401;BME280;18038;50.166;18.908;2022-08-21T14:45:53;97630.31;;;15.98;74.21
21401;BME280;18038;50.166;18.908;2022-08-21T14:49:04;97629.25;;;15.99;74.41
21401;BME280;18038;50.166;18.908;2022-08-21T14:52:15;97638.41;;;15.86;74.55
21401;BME280;18038;50.166;18.908;2022-08-21T14:55:21;97638.78;;;15.78;75.23
21401;BME280;18038;50.166;18.908;2022-08-21T14:58:29;97633.75;;;15.70;74.61
21401;BME280;18038;50.166;18.908;2022-08-21T15:01:38;97640.34;;;15.50;75.57
21401;BME280;18038;50.166;18.908;2022-08-21T15:04:55;97633.53;;;15.59;75.39
21401;BME280;18038;50.166;18.908;2022-08-21T15:08:01;97633.09;;;15.51;75.23
21401;BME280;18038;50.166;18.908;2022-08-21T15:11:11;97638.38;;;15.34;75.76
21401;BME280;18038;50.166;18.908;2022-08-21T15:14:41;97638.59;;;15.20;76.68
21401;BME280;18038;50.166;18.908;2022-08-21T15:17:47;97638.13;;;15.35;75.99
21401;BME280;18038;50.166;18.908;2022-08-21T15:20:56;97638.72;;;15.26;76.23
21401;BME280;18038;50.166;18.908;2022-08-21T15:24:04;97649.97;;;15.11;77.14
21401;BME280;18038;50.166;18.908;2022-08-21T15:27:10;97652.88;;;15.09;77.39
21401;BME280;18038;50.166;18.908;2022-08-21T15:30:26;97650.66;;;15.06;77.35
21401;BME280;18038;50.166;18.908;2022-08-21T15:33:38;97657.91;;;15.17;76.37
21401;BME280;18038;50.166;18.908;2022-08-21T15:36:57;97660.94;;;15.09;76.92
21401;BME280;18038;50.166;18.908;2022-08-21T15:40:04;97661.63;;;14.93;77.41
21401;BME280;18038;50.166;18.908;2022-08-21T15:43:23;97673.72;;;15.02;77.33
21401;BME280;18038;50.166;18.908;2022-08-21T15:46:38;97674.03;;;14.94;76.99
21401;BME280;18038;50.166;18.908;2022-08-21T15:49:50;97665.38;;;14.92;77.36
21401;BME280;18038;50.166;18.908;2022-08-21T15:53:05;97665.16;;;15.05;76.71
21401;BME280;18038;50.166;18.908;2022-08-21T15:56:22;97658.94;;;15.05;77.13
21401;BME280;18038;50.166;18.908;2022-08-21T15:59:38;97654.03;;;14.90;77.27
21401;BME280;18038;50.166;18.908;2022-08-21T16:02:50;97658.94;;;14.81;77.24
21401;BME280;18038;50.166;18.908;2022-08-21T16:05:59;97666.59;;;14.77;77.42
21401;BME280;18038;50.166;18.908;2022-08-21T16:09:08;97668.94;;;14.74;77.51
21401;BME280;18038;50.166;18.908;2022-08-21T16:12:22;97673.56;;;14.85;77.63
21401;BME280;18038;50.166;18.908;2022-08-21T16:15:39;97676.25;;;14.85;77.58
21401;BME280;18038;50.166;18.908;2022-08-21T16:18:46;97681.31;;;14.75;78.02
21401;BME280;18038;50.166;18.908;2022-08-21T16:21:55;97678.63;;;14.75;78.15
21401;BME280;18038;50.166;18.908;2022-08-21T16:25:04;97683.19;;;14.74;77.83
21401;BME280;18038;50.166;18.908;2022-08-21T16:28:17;97687.00;;;14.85;77.64
21401;BME280;18038;50.166;18.908;2022-08-21T16:31:26;97679.44;;;14.75;78.29
21401;BME280;18038;50.166;18.908;2022-08-21T16:34:32;97683.78;;;14.76;78.11
21401;BME280;18038;50.166;18.908;2022-08-21T16:37:38;97686.06;;;14.79;78.79
21401;BME280;18038;50.166;18.908;2022-08-21T16:40:47;97686.72;;;14.75;78.62
21401;BME280;18038;50.166;18.908;2022-08-21T16:44:02;97686.34;;;14.71;78.82
21401;BME280;18038;50.166;18.908;2022-08-21T16:47:12;97672.06;;;14.59;79.10